createdAt,value
2018-02-01T00:00:17.928Z,88.43
2018-02-01T00:02:48.783Z,88.56
2018-02-01T00:05:19.565Z,89.15
2018-02-01T00:07:50.305Z,89.19
2018-02-01T00:10:21.048Z,88.47
2018-02-01T00:12:51.902Z,87.93
2018-02-01T00:15:22.675Z,88.55
2018-02-01T00:17:53.418Z,88.32
2018-02-01T00:20:24.180Z,88.73
2018-02-01T00:22:54.912Z,88.77
2018-02-01T00:25:25.672Z,88.93
2018-02-01T00:27:56.407Z,88.76
2018-02-01T00:30:27.155Z,89.25
2018-02-01T00:32:57.914Z,89.22
2018-02-01T00:35:28.701Z,89.10
2018-02-01T00:37:59.468Z,89.43
2018-02-01T00:40:30.213Z,89.45
2018-02-01T00:43:01.016Z,90.07
2018-02-01T00:45:31.786Z,89.86
2018-02-01T00:48:06.601Z,90.38
2018-02-01T00:50:37.353Z,90.30
2018-02-01T00:53:08.093Z,90.08
2018-02-01T00:55:38.841Z,90.22
2018-02-01T00:58:09.568Z,90.45
2018-02-01T01:00:40.351Z,90.26
2018-02-01T01:03:11.092Z,90.02
2018-02-01T01:05:41.860Z,90.45
2018-02-01T01:08:12.597Z,90.87
2018-02-01T01:10:43.349Z,90.97
2018-02-01T01:13:14.096Z,90.89
2018-02-01T01:15:44.873Z,91.50
2018-02-01T01:18:15.624Z,91.71
2018-02-01T01:20:46.383Z,91.32
2018-02-01T01:23:17.113Z,91.93
2018-02-01T01:25:47.888Z,92.54
2018-02-01T01:28:18.651Z,92.67
2018-02-01T01:30:49.397Z,92.33
2018-02-01T01:33:20.144Z,92.48
2018-02-01T01:35:50.909Z,92.68
2018-02-01T01:38:21.641Z,92.61
2018-02-01T01:40:52.402Z,93.17
2018-02-01T01:43:23.173Z,93.35
2018-02-01T01:46:06.096Z,92.90
2018-02-01T01:48:36.846Z,93.04
2018-02-01T01:51:07.607Z,92.93
2018-02-01T01:53:38.369Z,93.02
2018-02-01T01:56:09.119Z,93.37
2018-02-01T01:58:39.881Z,93.30
2018-02-01T02:01:10.672Z,93.60
2018-02-01T02:03:41.404Z,93.60
2018-02-01T02:06:12.152Z,93.61
2018-02-01T02:08:42.898Z,93.46
2018-02-01T02:11:13.665Z,92.89
2018-02-01T02:13:44.412Z,93.22
2018-02-01T02:16:15.152Z,93.31
2018-02-01T02:18:45.887Z,93.30
2018-02-01T02:21:16.661Z,93.46
2018-02-01T02:23:47.412Z,92.75
2018-02-01T02:26:18.155Z,93.09
2018-02-01T02:28:48.901Z,93.16
2018-02-01T02:31:19.664Z,93.37
2018-02-01T02:33:50.412Z,92.86
2018-02-01T02:36:21.160Z,93.16
2018-02-01T02:38:52.999Z,92.87
2018-02-01T02:41:23.747Z,92.97
2018-02-01T02:43:54.476Z,92.91
2018-02-01T02:46:25.253Z,92.65
2018-02-01T02:48:55.994Z,92.38
2018-02-01T02:51:26.757Z,92.71
2018-02-01T02:53:57.521Z,92.76
2018-02-01T02:56:28.272Z,92.87
2018-02-01T02:58:59.021Z,92.70
2018-02-01T03:01:29.777Z,92.70
2018-02-01T03:04:00.511Z,92.65
2018-02-01T03:06:31.301Z,92.70
2018-02-01T03:09:02.057Z,92.85
2018-02-01T03:11:32.799Z,92.90
2018-02-01T03:14:03.556Z,92.73
2018-02-01T03:16:34.296Z,92.52
2018-02-01T03:19:05.050Z,92.77
2018-02-01T03:21:35.781Z,92.72
2018-02-01T03:24:06.511Z,92.32
2018-02-01T03:26:37.252Z,92.42
2018-02-01T03:29:07.987Z,92.44
2018-02-01T03:31:38.736Z,92.09
2018-02-01T03:34:09.463Z,92.23
2018-02-01T03:36:40.210Z,92.16
2018-02-01T03:39:10.985Z,92.46
2018-02-01T03:41:41.720Z,91.87
2018-02-01T03:44:12.439Z,91.75
2018-02-01T03:46:43.198Z,92.26
2018-02-01T03:49:13.932Z,92.36
2018-02-01T03:51:44.668Z,91.95
2018-02-01T03:54:15.408Z,91.98
2018-02-01T03:56:46.150Z,92.58
2018-02-01T03:59:16.949Z,91.99
2018-02-01T04:01:47.691Z,92.26
2018-02-01T04:04:18.451Z,92.02
2018-02-01T04:06:49.191Z,92.18
2018-02-01T04:09:19.940Z,92.42
2018-02-01T04:11:50.728Z,92.42
2018-02-01T04:14:21.468Z,92.63
2018-02-01T04:16:52.216Z,92.52
2018-02-01T04:19:22.944Z,92.74
2018-02-01T04:21:53.717Z,93.36
2018-02-01T04:24:24.455Z,92.92
2018-02-01T04:26:55.239Z,92.82
2018-02-01T04:29:25.983Z,93.15
2018-02-01T04:31:56.732Z,92.85
2018-02-01T04:34:27.469Z,92.71
2018-02-01T04:36:58.240Z,92.17
2018-02-01T04:39:28.975Z,92.08
2018-02-01T04:41:59.733Z,92.21
2018-02-01T04:44:30.473Z,92.25
2018-02-01T04:47:01.238Z,92.53
2018-02-01T04:49:31.973Z,92.65
2018-02-01T04:52:02.762Z,92.67
2018-02-01T04:54:33.501Z,92.39
2018-02-01T04:57:04.260Z,92.61
2018-02-01T04:59:35.048Z,92.54
2018-02-01T05:02:05.809Z,92.58
2018-02-01T05:04:36.569Z,92.87
2018-02-01T05:07:07.348Z,93.08
2018-02-01T05:09:38.084Z,92.92
2018-02-01T05:12:08.825Z,93.00
2018-02-01T05:14:39.576Z,93.17
2018-02-01T05:17:10.331Z,92.98
2018-02-01T05:19:41.088Z,92.40
2018-02-01T05:22:11.843Z,92.15
2018-02-01T05:24:42.588Z,92.09
2018-02-01T05:27:13.345Z,92.63
2018-02-01T05:29:44.060Z,88.50
2018-02-01T05:32:14.809Z,88.18
2018-02-01T05:34:52.564Z,88.12
2018-02-01T05:37:23.317Z,87.15
2018-02-01T05:39:54.071Z,87.39
2018-02-01T05:42:24.836Z,88.05
2018-02-01T05:44:55.575Z,86.83
2018-02-01T05:47:26.369Z,88.20
2018-02-01T05:49:57.124Z,88.00
2018-02-01T05:52:27.884Z,88.82
2018-02-01T05:54:58.649Z,88.19
2018-02-01T05:57:29.389Z,89.03
2018-02-01T06:00:00.181Z,89.08
2018-02-01T06:02:30.967Z,89.67
2018-02-01T06:05:01.712Z,90.17
2018-02-01T06:07:32.462Z,90.30
2018-02-01T06:10:03.216Z,90.00
2018-02-01T06:12:33.985Z,89.98
2018-02-01T06:15:04.749Z,90.21
2018-02-01T06:17:35.551Z,90.11
2018-02-01T06:20:06.324Z,89.47
2018-02-01T06:22:37.475Z,90.28
2018-02-01T06:25:08.213Z,91.02
2018-02-01T06:27:38.988Z,90.88
2018-02-01T06:30:09.736Z,90.31
2018-02-01T06:32:40.496Z,90.00
2018-02-01T06:35:11.233Z,90.02
2018-02-01T06:37:42.004Z,90.71
2018-02-01T06:40:12.752Z,90.59
2018-02-01T06:42:43.510Z,90.89
2018-02-01T06:45:14.256Z,91.36
2018-02-01T06:47:45.006Z,90.52
2018-02-01T06:50:15.745Z,91.18
2018-02-01T06:52:46.501Z,91.26
2018-02-01T06:55:17.238Z,91.45
2018-02-01T06:57:48.000Z,90.79
2018-02-01T07:00:18.752Z,90.43
2018-02-01T07:02:49.592Z,90.62
2018-02-01T07:05:20.344Z,90.99
2018-02-01T07:07:51.113Z,89.82
2018-02-01T07:10:21.877Z,90.65
2018-02-01T07:12:52.635Z,90.46
2018-02-01T07:15:23.364Z,90.75
2018-02-01T07:17:54.136Z,91.23
2018-02-01T07:20:24.876Z,91.44
2018-02-01T07:22:55.708Z,92.03
2018-02-01T07:25:26.500Z,91.88
2018-02-01T07:27:57.294Z,92.01
2018-02-01T07:30:28.038Z,91.96
2018-02-01T07:32:58.816Z,92.23
2018-02-01T07:35:29.551Z,92.10
2018-02-01T07:38:00.315Z,92.37
2018-02-01T07:40:31.063Z,91.71
2018-02-01T07:43:01.821Z,91.87
2018-02-01T07:58:54.744Z,90.28
2018-02-01T08:01:25.479Z,90.42
2018-02-01T08:03:56.246Z,90.32
2018-02-01T08:06:26.981Z,90.09
2018-02-01T08:08:57.761Z,90.35
2018-02-01T08:11:28.511Z,90.99
2018-02-01T08:13:59.264Z,90.43
2018-02-01T08:16:30.081Z,90.98
2018-02-01T08:19:00.829Z,90.23
2018-02-01T08:21:31.705Z,90.20
2018-02-01T08:24:02.456Z,89.91
2018-02-01T08:26:33.178Z,89.70
2018-02-01T08:29:03.932Z,89.18
2018-02-01T08:31:34.709Z,89.73
2018-02-01T08:34:05.468Z,90.53
2018-02-01T08:36:36.293Z,89.79
2018-02-01T08:39:07.137Z,90.78
2018-02-01T08:41:37.973Z,90.66
2018-02-01T08:57:41.101Z,90.12
2018-02-01T09:00:11.889Z,90.24
2018-02-01T09:02:42.659Z,89.10
2018-02-01T09:05:13.479Z,90.01
2018-02-01T09:07:44.335Z,89.75
2018-02-01T09:10:15.147Z,88.55
2018-02-01T09:12:45.992Z,88.90
2018-02-01T09:15:16.754Z,90.49
2018-02-01T09:17:47.535Z,90.34
2018-02-01T09:20:18.278Z,90.34
2018-02-01T09:22:49.092Z,91.33
2018-02-01T09:25:20.047Z,90.17
2018-02-01T09:27:50.940Z,89.92
2018-02-01T09:30:21.713Z,89.03
2018-02-01T09:32:52.513Z,88.81
2018-02-01T09:35:38.284Z,88.16
2018-02-01T09:38:09.044Z,87.23
2018-02-01T09:40:39.809Z,88.30
2018-02-01T09:43:10.568Z,89.89
2018-02-01T09:45:41.329Z,90.18
2018-02-01T09:48:12.089Z,89.08
2018-02-01T09:50:42.853Z,89.81
2018-02-01T09:53:13.697Z,89.75
2018-02-01T09:55:44.537Z,89.54
2018-02-01T09:58:15.342Z,89.45
2018-02-01T10:00:46.105Z,88.97
2018-02-01T10:03:17.972Z,89.12
2018-02-01T10:05:49.000Z,89.85
2018-02-01T10:08:20.036Z,89.66
2018-02-01T10:10:50.897Z,90.19
2018-02-01T10:13:21.717Z,91.43
2018-02-01T10:16:09.151Z,90.06
2018-02-01T10:21:38.784Z,90.72
2018-02-01T10:24:09.599Z,90.24
2018-02-01T10:26:40.433Z,90.58
2018-02-01T10:29:11.266Z,90.40
2018-02-01T10:31:42.037Z,92.01
2018-02-01T10:34:12.844Z,90.72
2018-02-01T10:36:43.684Z,89.41
2018-02-01T10:39:14.520Z,89.51
2018-02-01T10:41:45.364Z,89.71
2018-02-01T10:44:22.932Z,89.50
2018-02-01T10:46:53.802Z,89.65
2018-02-01T10:49:25.648Z,89.79
2018-02-01T10:54:50.328Z,88.95
2018-02-01T10:57:21.266Z,88.79
2018-02-01T10:59:54.051Z,88.97
2018-02-01T11:02:24.808Z,88.90
2018-02-01T11:04:55.577Z,89.59
2018-02-01T11:10:24.543Z,86.93
2018-02-01T11:12:55.383Z,88.38
2018-02-01T11:15:26.240Z,89.07
2018-02-01T11:17:56.998Z,88.44
2018-02-01T11:20:27.764Z,88.80
2018-02-01T11:22:58.534Z,87.77
2018-02-01T11:25:29.335Z,87.44
2018-02-01T11:28:00.111Z,88.88
2018-02-01T11:30:30.873Z,89.29
2018-02-01T11:33:01.685Z,88.82
2018-02-01T11:35:32.528Z,89.32
2018-02-01T11:38:03.370Z,88.99
2018-02-01T11:40:34.162Z,88.39
2018-02-01T11:43:05.017Z,89.14
2018-02-01T11:45:35.788Z,87.78
2018-02-01T11:48:07.636Z,86.89
2018-02-01T11:50:38.372Z,86.71
2018-02-01T11:53:11.247Z,86.49
2018-02-01T11:55:42.076Z,87.63
2018-02-01T11:58:12.922Z,87.85
2018-02-01T12:00:43.736Z,86.57
2018-02-01T12:03:14.488Z,87.19
2018-02-01T12:05:45.320Z,87.42
2018-02-01T12:08:16.136Z,87.38
2018-02-01T12:10:46.928Z,86.28
2018-02-01T12:13:17.669Z,86.91
2018-02-01T12:15:48.431Z,86.44
2018-02-01T12:18:19.195Z,85.98
2018-02-01T12:20:50.035Z,85.17
2018-02-01T12:23:20.778Z,84.41
2018-02-01T12:25:51.574Z,83.26
2018-02-01T12:28:22.361Z,81.90
2018-02-01T12:30:53.163Z,82.79
2018-02-01T12:33:23.928Z,81.63
2018-02-01T12:35:54.737Z,84.01
2018-02-01T12:38:25.504Z,84.60
2018-02-01T12:40:56.252Z,84.62
2018-02-01T12:43:27.017Z,84.92
2018-02-01T12:45:57.768Z,83.80
2018-02-01T12:48:29.644Z,83.69
2018-02-01T12:51:00.385Z,84.31
2018-02-01T12:53:31.146Z,84.43
2018-02-01T12:56:01.941Z,84.42
2018-02-01T12:58:32.760Z,84.31
2018-02-01T13:01:03.598Z,83.90
2018-02-01T13:03:34.428Z,81.38
2018-02-01T13:06:05.318Z,82.46
2018-02-01T13:08:36.038Z,82.33
2018-02-01T13:11:06.786Z,81.55
2018-02-01T13:13:37.558Z,83.02
2018-02-01T13:16:08.414Z,81.82
2018-02-01T13:18:39.244Z,81.28
2018-02-01T13:21:14.277Z,81.72
2018-02-01T13:23:45.034Z,80.96
2018-02-01T13:26:15.851Z,81.17
2018-02-01T13:28:46.602Z,82.00
2018-02-01T13:31:17.370Z,80.15
2018-02-01T13:33:48.170Z,79.39
2018-02-01T13:36:19.049Z,80.90
2018-02-01T13:38:49.820Z,81.16
2018-02-01T13:41:20.692Z,82.71
2018-02-01T13:43:51.429Z,81.52
2018-02-01T13:46:22.295Z,82.16
2018-02-01T13:48:53.080Z,80.13
2018-02-01T13:51:23.858Z,80.05
2018-02-01T13:53:54.625Z,80.45
2018-02-01T13:56:25.468Z,79.21
2018-02-01T13:58:56.204Z,81.12
2018-02-01T14:01:27.040Z,79.07
2018-02-01T14:03:58.026Z,79.11
2018-02-01T14:06:28.802Z,79.31
2018-02-01T14:08:59.583Z,80.21
2018-02-01T14:11:30.351Z,80.35
2018-02-01T14:14:01.111Z,79.55
2018-02-01T14:16:31.962Z,79.42
2018-02-01T14:19:02.749Z,79.61
2018-02-01T14:21:33.562Z,80.39
2018-02-01T14:24:04.307Z,81.19
2018-02-01T14:26:35.112Z,81.01
2018-02-01T14:29:05.848Z,80.05
2018-02-01T14:31:36.686Z,80.36
2018-02-01T14:34:07.428Z,80.35
2018-02-01T14:36:38.208Z,80.01
2018-02-01T14:39:08.967Z,79.54
2018-02-01T14:41:39.808Z,81.66
2018-02-01T14:44:10.660Z,80.32
2018-02-01T14:46:41.517Z,80.56
2018-02-01T14:49:12.324Z,81.11
2018-02-01T14:51:43.177Z,82.20
2018-02-01T14:54:27.642Z,83.09
2018-02-01T14:57:02.253Z,82.39
2018-02-01T14:59:34.084Z,82.39
2018-02-01T15:02:04.836Z,84.11
2018-02-01T15:04:35.612Z,81.50
2018-02-01T15:07:06.384Z,84.01
2018-02-01T15:09:37.226Z,84.02
2018-02-01T15:12:08.000Z,84.21
2018-02-01T15:14:38.784Z,84.43
2018-02-01T15:17:09.544Z,85.23
2018-02-01T15:19:40.299Z,85.72
2018-02-01T15:22:11.101Z,87.10
2018-02-01T15:24:41.848Z,85.01
2018-02-01T15:27:12.612Z,86.21
2018-02-01T15:29:43.348Z,87.21
2018-02-01T15:32:16.207Z,87.42
2018-02-01T15:34:47.029Z,87.85
2018-02-01T15:37:17.817Z,88.10
2018-02-01T15:39:48.604Z,87.92
2018-02-01T15:42:19.359Z,88.93
2018-02-01T15:44:50.117Z,89.87
2018-02-01T15:47:20.905Z,90.76
2018-02-01T15:49:51.651Z,90.82
2018-02-01T15:52:22.400Z,90.64
2018-02-01T15:54:53.260Z,90.73
2018-02-01T15:57:24.064Z,90.69
2018-02-01T15:59:54.799Z,90.80
2018-02-01T16:02:25.564Z,90.66
2018-02-01T16:04:56.332Z,91.96
2018-02-01T16:07:27.156Z,92.03
2018-02-01T16:09:57.924Z,93.29
2018-02-01T16:12:28.705Z,93.52
2018-02-01T16:14:59.460Z,93.81
2018-02-01T16:17:30.252Z,94.35
2018-02-01T16:20:01.000Z,94.51
2018-02-01T16:22:31.835Z,94.81
2018-02-01T16:25:02.589Z,94.76
2018-02-01T16:27:33.348Z,94.62
2018-02-01T16:30:04.120Z,94.63
2018-02-01T16:32:34.885Z,94.33
2018-02-01T16:35:05.676Z,94.09
2018-02-01T16:37:36.429Z,94.08
2018-02-01T16:40:07.207Z,94.05
2018-02-01T16:42:37.984Z,93.67
2018-02-01T16:45:08.724Z,93.70
2018-02-01T16:47:39.517Z,92.90
2018-02-01T16:50:10.249Z,92.64
2018-02-01T16:52:41.052Z,92.87
2018-02-01T16:55:11.817Z,93.08
2018-02-01T16:57:42.558Z,92.02
2018-02-01T17:00:13.323Z,92.40
2018-02-01T17:02:44.089Z,91.46
2018-02-01T17:05:21.917Z,90.94
2018-02-01T17:07:52.727Z,90.23
2018-02-01T17:10:23.472Z,90.27
2018-02-01T17:12:54.275Z,90.68
2018-02-01T17:15:25.044Z,91.32
2018-02-01T17:17:55.802Z,91.51
2018-02-01T17:20:26.584Z,91.29
2018-02-01T17:22:57.356Z,91.97
2018-02-01T17:25:28.104Z,91.85
2018-02-01T17:27:58.857Z,92.15
2018-02-01T17:30:29.611Z,91.89
2018-02-01T17:33:00.390Z,91.56
2018-02-01T17:35:31.147Z,91.73
2018-02-01T17:38:01.904Z,92.14
2018-02-01T17:40:32.630Z,91.35
2018-02-01T17:43:03.394Z,91.71
2018-02-01T17:45:34.136Z,91.61
2018-02-01T17:48:04.880Z,91.78
2018-02-01T17:50:35.619Z,91.93
2018-02-01T17:53:06.379Z,92.07
2018-02-01T17:55:37.136Z,92.04
2018-02-01T17:58:07.898Z,91.87
2018-02-01T18:00:38.654Z,92.52
2018-02-01T18:03:09.452Z,92.51
2018-02-01T18:05:40.225Z,92.34
2018-02-01T18:08:10.969Z,92.46
2018-02-01T18:10:41.720Z,92.07
2018-02-01T18:13:12.544Z,92.47
2018-02-01T18:15:43.318Z,92.74
2018-02-01T18:18:14.081Z,92.78
2018-02-01T18:20:44.833Z,92.72
2018-02-01T18:23:15.588Z,93.12
2018-02-01T18:25:46.341Z,93.27
2018-02-01T18:28:17.112Z,93.43
2018-02-01T18:30:47.865Z,93.79
2018-02-01T18:33:18.652Z,94.26
2018-02-01T18:35:49.431Z,94.69
2018-02-01T18:38:20.251Z,94.76
2018-02-01T18:40:51.011Z,94.54
2018-02-01T18:43:21.820Z,94.17
2018-02-01T18:45:52.532Z,94.28
2018-02-01T18:48:23.284Z,94.68
2018-02-01T18:50:54.039Z,94.88
2018-02-01T18:53:24.845Z,95.14
2018-02-01T18:55:55.647Z,95.36
2018-02-01T18:58:26.416Z,95.47
2018-02-01T19:00:57.164Z,95.56
2018-02-01T19:03:27.951Z,95.81
2018-02-01T19:05:58.725Z,95.80
2018-02-01T19:08:29.504Z,95.89
2018-02-01T19:11:00.243Z,96.00
2018-02-01T19:13:31.012Z,96.27
2018-02-01T19:16:01.765Z,96.31
2018-02-01T19:18:32.584Z,96.35
2018-02-01T19:21:03.361Z,96.49
2018-02-01T19:23:34.110Z,96.68
2018-02-01T19:26:04.920Z,96.50
2018-02-01T19:28:35.729Z,96.53
2018-02-01T19:31:06.556Z,96.66
2018-02-01T19:33:37.321Z,96.94
2018-02-01T19:36:08.119Z,96.88
2018-02-01T19:38:38.916Z,96.86
2018-02-01T19:41:09.661Z,96.85
2018-02-01T19:43:40.462Z,96.72
2018-02-01T19:46:11.232Z,96.59
2018-02-01T19:48:42.025Z,96.56
2018-02-01T19:51:12.815Z,96.68
2018-02-01T19:53:43.613Z,96.69
2018-02-01T19:56:14.367Z,96.58
2018-02-01T19:58:45.152Z,96.38
2018-02-01T20:01:15.961Z,96.29
2018-02-01T20:03:46.724Z,96.40
2018-02-01T20:06:17.509Z,96.47
2018-02-01T20:08:48.315Z,96.41
2018-02-01T20:11:19.120Z,96.34
2018-02-01T20:13:49.953Z,96.29
2018-02-01T20:16:20.759Z,96.33
2018-02-01T20:18:51.541Z,95.51
2018-02-01T20:21:22.424Z,95.52
2018-02-01T20:23:53.208Z,95.53
2018-02-01T20:26:23.960Z,95.65
2018-02-01T20:28:54.715Z,95.71
2018-02-01T20:31:25.500Z,95.83
2018-02-01T20:33:56.281Z,95.86
2018-02-01T20:36:27.074Z,96.02
2018-02-01T20:38:58.896Z,95.92
2018-02-01T20:41:29.649Z,95.08
2018-02-01T20:44:00.384Z,94.89
2018-02-01T20:46:31.214Z,95.05
2018-02-01T20:49:02.039Z,95.08
2018-02-01T20:51:32.819Z,95.12
2018-02-01T20:54:03.647Z,95.04
2018-02-01T20:56:34.376Z,95.15
2018-02-01T20:59:05.194Z,95.17
2018-02-01T21:01:36.005Z,95.12
2018-02-01T21:04:06.792Z,94.88
2018-02-01T21:06:37.546Z,95.01
2018-02-01T21:09:08.355Z,94.86
2018-02-01T21:11:39.112Z,94.98
2018-02-01T21:14:09.984Z,95.04
2018-02-01T21:16:40.766Z,95.09
2018-02-01T21:19:11.650Z,95.10
2018-02-01T21:21:42.436Z,95.26
2018-02-01T21:24:13.231Z,95.49
2018-02-01T21:26:43.981Z,95.68
2018-02-01T21:29:14.791Z,95.98
2018-02-01T21:31:45.615Z,96.08
2018-02-01T21:34:16.440Z,96.16
2018-02-01T21:36:47.192Z,96.28
2018-02-01T21:39:17.976Z,96.42
2018-02-01T21:41:55.652Z,96.55
2018-02-01T21:44:26.385Z,96.51
2018-02-01T21:46:57.192Z,96.54
2018-02-01T21:49:28.107Z,96.52
2018-02-01T21:51:58.881Z,96.65
2018-02-01T21:54:29.644Z,96.54
2018-02-01T21:57:00.406Z,96.71
2018-02-01T21:59:31.169Z,96.73
2018-02-01T22:02:01.953Z,96.76
2018-02-01T22:04:32.783Z,96.81
2018-02-01T22:07:03.550Z,96.87
2018-02-01T22:09:34.334Z,97.01
2018-02-01T22:12:05.151Z,97.10
2018-02-01T22:14:35.972Z,96.87
2018-02-01T22:17:06.745Z,96.90
2018-02-01T22:19:37.525Z,96.94
2018-02-01T22:22:08.348Z,96.96
2018-02-01T22:24:39.138Z,96.95
2018-02-01T22:27:09.914Z,97.02
2018-02-01T22:32:48.045Z,97.35
2018-02-01T22:35:18.805Z,97.29
2018-02-01T22:37:49.544Z,97.32
2018-02-01T22:40:20.301Z,97.26
2018-02-01T22:42:57.687Z,96.94
2018-02-01T22:45:28.432Z,96.67
2018-02-01T22:47:59.180Z,96.48
2018-02-01T22:50:29.970Z,96.48
2018-02-01T22:53:00.746Z,96.22
2018-02-01T22:55:31.526Z,95.90
2018-02-01T22:58:02.318Z,95.78
2018-02-01T23:00:33.062Z,95.80
2018-02-01T23:03:03.810Z,95.84
2018-02-01T23:05:34.632Z,96.01
2018-02-01T23:08:05.435Z,95.90
2018-02-01T23:10:36.173Z,95.96
2018-02-01T23:13:06.951Z,95.71
2018-02-01T23:15:37.702Z,95.63
2018-02-01T23:18:08.522Z,95.51
2018-02-01T23:20:39.274Z,95.37
2018-02-01T23:23:10.095Z,95.51
2018-02-01T23:25:40.840Z,95.61
2018-02-01T23:28:11.624Z,95.70
2018-02-01T23:30:42.375Z,95.63
2018-02-01T23:33:13.145Z,95.84
2018-02-01T23:35:43.945Z,95.91
2018-02-01T23:38:14.732Z,95.72
2018-02-01T23:40:45.512Z,95.33
2018-02-01T23:43:16.289Z,95.09
2018-02-01T23:45:47.033Z,94.95
2018-02-01T23:48:18.851Z,94.72
2018-02-01T23:50:49.603Z,94.27
2018-02-01T23:53:20.393Z,93.97
2018-02-01T23:55:51.162Z,93.72
2018-02-01T23:58:21.925Z,93.29
